sensor_id;sensor_type;location;lat;lon;timestamp;P1;durP1;ratioP1;P2;durP2;ratioP2
6665;SDS011;3369;49.906;8.598;2024-03-22T00:01:13;10.85;;;9.85;;
6665;SDS011;3369;49.906;8.598;2024-03-22T00:03:39;12.30;;;11.10;;
6665;SDS011;3369;49.906;8.598;2024-03-22T00:06:04;11.07;;;9.98;;
6665;SDS011;3369;49.906;8.598;2024-03-22T00:08:30;10.93;;;9.82;;
6665;SDS011;3369;49.906;8.598;2024-03-22T00:10:56;10.53;;;9.53;;
6665;SDS011;3369;49.906;8.598;2024-03-22T00:13:21;12.07;;;10.88;;
6665;SDS011;3369;49.906;8.598;2024-03-22T00:15:47;11.38;;;10.27;;
6665;SDS011;3369;49.906;8.598;2024-03-22T00:18:12;10.50;;;9.50;;
6665;SDS011;3369;49.906;8.598;2024-03-22T00:20:38;10.88;;;9.88;;
6665;SDS011;3369;49.906;8.598;2024-03-22T00:23:03;10.68;;;9.60;;
6665;SDS011;3369;49.906;8.598;2024-03-22T00:25:29;9.50;;;8.60;;
6665;SDS011;3369;49.906;8.598;2024-03-22T00:27:55;9.65;;;8.75;;
6665;SDS011;3369;49.906;8.598;2024-03-22T00:30:21;8.93;;;8.13;;
6665;SDS011;3369;49.906;8.598;2024-03-22T00:32:47;9.17;;;8.33;;
6665;SDS011;3369;49.906;8.598;2024-03-22T00:35:12;8.20;;;7.50;;
6665;SDS011;3369;49.906;8.598;2024-03-22T00:37:38;8.73;;;8.00;;
6665;SDS011;3369;49.906;8.598;2024-03-22T00:40:04;8.23;;;7.53;;
6665;SDS011;3369;49.906;8.598;2024-03-22T00:42:30;7.72;;;7.03;;
6665;SDS011;3369;49.906;8.598;2024-03-22T00:44:56;7.73;;;7.10;;
6665;SDS011;3369;49.906;8.598;2024-03-22T00:47:22;7.00;;;6.40;;
6665;SDS011;3369;49.906;8.598;2024-03-22T00:49:48;7.10;;;6.50;;
6665;SDS011;3369;49.906;8.598;2024-03-22T00:52:14;6.90;;;6.30;;
6665;SDS011;3369;49.906;8.598;2024-03-22T00:54:39;6.60;;;6.10;;
6665;SDS011;3369;49.906;8.598;2024-03-22T00:57:05;7.10;;;6.50;;
6665;SDS011;3369;49.906;8.598;2024-03-22T00:59:31;6.47;;;5.97;;
6665;SDS011;3369;49.906;8.598;2024-03-22T01:01:57;6.57;;;6.00;;
6665;SDS011;3369;49.906;8.598;2024-03-22T01:04:23;6.70;;;6.10;;
6665;SDS011;3369;49.906;8.598;2024-03-22T01:06:48;7.03;;;6.35;;
6665;SDS011;3369;49.906;8.598;2024-03-22T01:09:14;6.27;;;5.77;;
6665;SDS011;3369;49.906;8.598;2024-03-22T01:11:40;6.73;;;6.13;;
6665;SDS011;3369;49.906;8.598;2024-03-22T01:14:06;6.28;;;5.78;;
6665;SDS011;3369;49.906;8.598;2024-03-22T01:16:31;6.43;;;5.90;;
6665;SDS011;3369;49.906;8.598;2024-03-22T01:18:57;6.17;;;5.67;;
6665;SDS011;3369;49.906;8.598;2024-03-22T01:21:22;7.30;;;6.60;;
6665;SDS011;3369;49.906;8.598;2024-03-22T01:23:50;6.88;;;6.28;;
6665;SDS011;3369;49.906;8.598;2024-03-22T01:26:19;7.50;;;6.80;;
6665;SDS011;3369;49.906;8.598;2024-03-22T01:28:45;6.47;;;5.95;;
6665;SDS011;3369;49.906;8.598;2024-03-22T01:31:11;6.00;;;5.50;;
6665;SDS011;3369;49.906;8.598;2024-03-22T01:33:37;6.33;;;5.73;;
6665;SDS011;3369;49.906;8.598;2024-03-22T01:36:02;6.35;;;5.85;;
6665;SDS011;3369;49.906;8.598;2024-03-22T01:38:30;6.50;;;5.90;;
6665;SDS011;3369;49.906;8.598;2024-03-22T01:40:56;6.55;;;5.95;;
6665;SDS011;3369;49.906;8.598;2024-03-22T01:43:21;6.53;;;6.03;;
6665;SDS011;3369;49.906;8.598;2024-03-22T01:45:47;6.70;;;6.10;;
6665;SDS011;3369;49.906;8.598;2024-03-22T01:48:13;7.25;;;6.65;;
6665;SDS011;3369;49.906;8.598;2024-03-22T01:50:39;7.30;;;6.65;;
6665;SDS011;3369;49.906;8.598;2024-03-22T01:53:05;7.67;;;6.97;;
6665;SDS011;3369;49.906;8.598;2024-03-22T01:55:30;7.13;;;6.53;;
6665;SDS011;3369;49.906;8.598;2024-03-22T01:57:56;7.72;;;6.93;;
6665;SDS011;3369;49.906;8.598;2024-03-22T02:00:22;8.35;;;7.57;;
6665;SDS011;3369;49.906;8.598;2024-03-22T02:02:48;8.02;;;7.32;;
6665;SDS011;3369;49.906;8.598;2024-03-22T02:05:17;7.88;;;7.18;;
6665;SDS011;3369;49.906;8.598;2024-03-22T02:07:46;7.60;;;6.90;;
6665;SDS011;3369;49.906;8.598;2024-03-22T02:10:13;7.63;;;6.93;;
6665;SDS011;3369;49.906;8.598;2024-03-22T02:12:39;8.82;;;7.95;;
6665;SDS011;3369;49.906;8.598;2024-03-22T02:15:05;10.25;;;8.93;;
6665;SDS011;3369;49.906;8.598;2024-03-22T02:17:32;10.98;;;9.95;;
6665;SDS011;3369;49.906;8.598;2024-03-22T02:19:58;12.32;;;11.02;;
6665;SDS011;3369;49.906;8.598;2024-03-22T02:22:24;12.10;;;10.88;;
6665;SDS011;3369;49.906;8.598;2024-03-22T02:24:51;12.90;;;11.60;;
6665;SDS011;3369;49.906;8.598;2024-03-22T02:27:16;13.02;;;11.63;;
6665;SDS011;3369;49.906;8.598;2024-03-22T02:29:42;13.23;;;11.93;;
6665;SDS011;3369;49.906;8.598;2024-03-22T02:32:07;12.67;;;11.37;;
6665;SDS011;3369;49.906;8.598;2024-03-22T02:34:33;13.13;;;11.80;;
6665;SDS011;3369;49.906;8.598;2024-03-22T02:36:58;13.20;;;11.45;;
6665;SDS011;3369;49.906;8.598;2024-03-22T02:39:24;13.13;;;11.82;;
6665;SDS011;3369;49.906;8.598;2024-03-22T02:41:50;12.18;;;10.93;;
6665;SDS011;3369;49.906;8.598;2024-03-22T02:44:16;12.23;;;11.02;;
6665;SDS011;3369;49.906;8.598;2024-03-22T02:46:41;11.23;;;10.13;;
6665;SDS011;3369;49.906;8.598;2024-03-22T02:49:07;10.20;;;9.30;;
6665;SDS011;3369;49.906;8.598;2024-03-22T02:51:32;8.85;;;8.05;;
6665;SDS011;3369;49.906;8.598;2024-03-22T02:53:58;8.83;;;8.03;;
6665;SDS011;3369;49.906;8.598;2024-03-22T02:56:24;8.33;;;7.57;;
6665;SDS011;3369;49.906;8.598;2024-03-22T02:58:49;7.60;;;6.90;;
6665;SDS011;3369;49.906;8.598;2024-03-22T03:01:15;7.65;;;6.95;;
6665;SDS011;3369;49.906;8.598;2024-03-22T03:03:40;6.90;;;6.30;;
6665;SDS011;3369;49.906;8.598;2024-03-22T03:06:06;7.53;;;6.83;;
6665;SDS011;3369;49.906;8.598;2024-03-22T03:08:31;7.03;;;6.38;;
6665;SDS011;3369;49.906;8.598;2024-03-22T03:10:57;6.70;;;6.10;;
6665;SDS011;3369;49.906;8.598;2024-03-22T03:13:23;7.00;;;6.40;;
6665;SDS011;3369;49.906;8.598;2024-03-22T03:15:49;7.40;;;6.70;;
6665;SDS011;3369;49.906;8.598;2024-03-22T03:18:14;7.05;;;6.45;;
6665;SDS011;3369;49.906;8.598;2024-03-22T03:20:40;7.78;;;6.97;;
6665;SDS011;3369;49.906;8.598;2024-03-22T03:23:05;9.90;;;8.90;;
6665;SDS011;3369;49.906;8.598;2024-03-22T03:25:31;10.73;;;9.73;;
6665;SDS011;3369;49.906;8.598;2024-03-22T03:27:56;11.32;;;10.23;;
6665;SDS011;3369;49.906;8.598;2024-03-22T03:30:22;13.13;;;11.43;;
6665;SDS011;3369;49.906;8.598;2024-03-22T03:32:47;12.27;;;11.07;;
6665;SDS011;3369;49.906;8.598;2024-03-22T03:35:13;12.20;;;11.00;;
6665;SDS011;3369;49.906;8.598;2024-03-22T03:37:39;12.18;;;10.98;;
6665;SDS011;3369;49.906;8.598;2024-03-22T03:40:04;12.43;;;11.13;;
6665;SDS011;3369;49.906;8.598;2024-03-22T03:42:31;12.13;;;10.65;;
6665;SDS011;3369;49.906;8.598;2024-03-22T03:44:56;11.60;;;10.40;;
6665;SDS011;3369;49.906;8.598;2024-03-22T03:47:22;12.70;;;11.40;;
6665;SDS011;3369;49.906;8.598;2024-03-22T03:49:47;11.32;;;10.23;;
6665;SDS011;3369;49.906;8.598;2024-03-22T03:52:13;11.13;;;10.05;;
6665;SDS011;3369;49.906;8.598;2024-03-22T03:54:39;11.10;;;10.10;;
6665;SDS011;3369;49.906;8.598;2024-03-22T03:57:04;12.17;;;10.97;;
6665;SDS011;3369;49.906;8.598;2024-03-22T03:59:30;11.88;;;10.57;;
6665;SDS011;3369;49.906;8.598;2024-03-22T04:01:56;12.90;;;11.63;;
6665;SDS011;3369;49.906;8.598;2024-03-22T04:04:21;11.95;;;10.75;;
6665;SDS011;3369;49.906;8.598;2024-03-22T04:06:47;12.07;;;10.95;;
6665;SDS011;3369;49.906;8.598;2024-03-22T04:09:13;12.57;;;11.27;;
6665;SDS011;3369;49.906;8.598;2024-03-22T04:11:38;12.23;;;11.03;;
6665;SDS011;3369;49.906;8.598;2024-03-22T04:14:06;11.85;;;10.68;;
6665;SDS011;3369;49.906;8.598;2024-03-22T04:16:32;12.68;;;11.35;;
6665;SDS011;3369;49.906;8.598;2024-03-22T04:18:57;12.45;;;11.15;;
6665;SDS011;3369;49.906;8.598;2024-03-22T04:21:23;12.00;;;10.73;;
6665;SDS011;3369;49.906;8.598;2024-03-22T04:23:49;13.40;;;11.23;;
6665;SDS011;3369;49.906;8.598;2024-03-22T04:26:14;12.18;;;10.98;;
6665;SDS011;3369;49.906;8.598;2024-03-22T04:28:40;13.02;;;11.73;;
6665;SDS011;3369;49.906;8.598;2024-03-22T04:31:07;11.70;;;10.52;;
6665;SDS011;3369;49.906;8.598;2024-03-22T04:33:36;12.95;;;11.60;;
6665;SDS011;3369;49.906;8.598;2024-03-22T04:36:02;12.90;;;11.63;;
6665;SDS011;3369;49.906;8.598;2024-03-22T04:38:29;13.35;;;11.95;;
6665;SDS011;3369;49.906;8.598;2024-03-22T04:40:55;11.60;;;10.40;;
6665;SDS011;3369;49.906;8.598;2024-03-22T04:43:21;12.10;;;10.85;;
6665;SDS011;3369;49.906;8.598;2024-03-22T04:45:48;12.23;;;10.93;;
6665;SDS011;3369;49.906;8.598;2024-03-22T04:48:17;13.87;;;12.47;;
6665;SDS011;3369;49.906;8.598;2024-03-22T04:50:46;13.63;;;12.23;;
6665;SDS011;3369;49.906;8.598;2024-03-22T04:53:13;13.48;;;12.07;;
6665;SDS011;3369;49.906;8.598;2024-03-22T04:55:39;13.23;;;11.45;;
6665;SDS011;3369;49.906;8.598;2024-03-22T04:58:09;12.48;;;11.23;;
6665;SDS011;3369;49.906;8.598;2024-03-22T05:00:39;13.15;;;11.85;;
6665;SDS011;3369;49.906;8.598;2024-03-22T05:03:04;11.80;;;10.63;;
6665;SDS011;3369;49.906;8.598;2024-03-22T05:05:30;13.23;;;11.82;;
6665;SDS011;3369;49.906;8.598;2024-03-22T05:07:55;13.10;;;11.70;;
6665;SDS011;3369;49.906;8.598;2024-03-22T05:10:21;12.63;;;11.33;;
6665;SDS011;3369;49.906;8.598;2024-03-22T05:12:47;12.63;;;11.00;;
6665;SDS011;3369;49.906;8.598;2024-03-22T05:15:12;12.55;;;11.25;;
6665;SDS011;3369;49.906;8.598;2024-03-22T05:17:38;12.67;;;11.10;;
6665;SDS011;3369;49.906;8.598;2024-03-22T05:20:04;11.87;;;10.67;;
6665;SDS011;3369;49.906;8.598;2024-03-22T05:22:31;11.88;;;10.52;;
6665;SDS011;3369;49.906;8.598;2024-03-22T05:24:57;12.00;;;10.80;;
6665;SDS011;3369;49.906;8.598;2024-03-22T05:27:22;14.90;;;13.00;;
6665;SDS011;3369;49.906;8.598;2024-03-22T05:29:48;13.40;;;12.00;;
6665;SDS011;3369;49.906;8.598;2024-03-22T05:32:13;15.45;;;13.65;;
6665;SDS011;3369;49.906;8.598;2024-03-22T05:34:39;15.30;;;13.70;;
6665;SDS011;3369;49.906;8.598;2024-03-22T05:37:05;15.47;;;13.40;;
6665;SDS011;3369;49.906;8.598;2024-03-22T05:39:31;16.00;;;13.50;;
6665;SDS011;3369;49.906;8.598;2024-03-22T05:41:56;15.73;;;13.95;;
6665;SDS011;3369;49.906;8.598;2024-03-22T05:44:22;15.65;;;13.95;;
6665;SDS011;3369;49.906;8.598;2024-03-22T05:46:48;17.27;;;14.20;;
6665;SDS011;3369;49.906;8.598;2024-03-22T05:49:14;15.85;;;14.07;;
6665;SDS011;3369;49.906;8.598;2024-03-22T05:51:39;16.43;;;14.37;;
6665;SDS011;3369;49.906;8.598;2024-03-22T05:54:05;16.77;;;14.50;;
6665;SDS011;3369;49.906;8.598;2024-03-22T05:56:31;17.05;;;14.35;;
6665;SDS011;3369;49.906;8.598;2024-03-22T05:58:57;15.07;;;13.23;;
6665;SDS011;3369;49.906;8.598;2024-03-22T06:01:22;15.70;;;13.85;;
6665;SDS011;3369;49.906;8.598;2024-03-22T06:03:48;14.85;;;13.13;;
6665;SDS011;3369;49.906;8.598;2024-03-22T06:06:13;15.87;;;14.07;;
6665;SDS011;3369;49.906;8.598;2024-03-22T06:08:39;15.80;;;14.05;;
6665;SDS011;3369;49.906;8.598;2024-03-22T06:11:07;14.25;;;12.70;;
6665;SDS011;3369;49.906;8.598;2024-03-22T06:13:33;15.63;;;13.93;;
6665;SDS011;3369;49.906;8.598;2024-03-22T06:15:59;15.95;;;14.20;;
6665;SDS011;3369;49.906;8.598;2024-03-22T06:18:25;15.88;;;13.95;;
6665;SDS011;3369;49.906;8.598;2024-03-22T06:20:51;16.40;;;14.10;;
6665;SDS011;3369;49.906;8.598;2024-03-22T06:23:19;16.08;;;14.32;;
6665;SDS011;3369;49.906;8.598;2024-03-22T06:25:51;18.33;;;15.30;;
6665;SDS011;3369;49.906;8.598;2024-03-22T06:28:17;16.63;;;14.63;;
6665;SDS011;3369;49.906;8.598;2024-03-22T06:30:42;16.30;;;13.67;;
6665;SDS011;3369;49.906;8.598;2024-03-22T06:33:08;15.80;;;14.07;;
6665;SDS011;3369;49.906;8.598;2024-03-22T06:35:34;15.40;;;13.35;;
6665;SDS011;3369;49.906;8.598;2024-03-22T06:37:59;15.57;;;13.23;;
6665;SDS011;3369;49.906;8.598;2024-03-22T06:40:27;15.15;;;13.55;;
6665;SDS011;3369;49.906;8.598;2024-03-22T06:42:53;14.45;;;12.85;;
6665;SDS011;3369;49.906;8.598;2024-03-22T06:45:19;14.27;;;12.67;;
6665;SDS011;3369;49.906;8.598;2024-03-22T06:47:44;15.10;;;13.07;;
6665;SDS011;3369;49.906;8.598;2024-03-22T06:50:10;14.70;;;12.60;;
6665;SDS011;3369;49.906;8.598;2024-03-22T06:52:36;13.85;;;12.45;;
6665;SDS011;3369;49.906;8.598;2024-03-22T06:55:01;14.77;;;12.40;;
6665;SDS011;3369;49.906;8.598;2024-03-22T06:57:28;14.02;;;12.25;;
6665;SDS011;3369;49.906;8.598;2024-03-22T06:59:54;14.30;;;12.80;;
6665;SDS011;3369;49.906;8.598;2024-03-22T07:02:19;13.10;;;11.80;;
6665;SDS011;3369;49.906;8.598;2024-03-22T07:04:45;13.38;;;11.95;;
6665;SDS011;3369;49.906;8.598;2024-03-22T07:07:11;12.60;;;11.40;;
6665;SDS011;3369;49.906;8.598;2024-03-22T07:09:36;11.53;;;10.43;;
6665;SDS011;3369;49.906;8.598;2024-03-22T07:12:02;13.20;;;11.27;;
6665;SDS011;3369;49.906;8.598;2024-03-22T07:14:28;12.35;;;11.13;;
6665;SDS011;3369;49.906;8.598;2024-03-22T07:16:54;12.13;;;10.95;;
6665;SDS011;3369;49.906;8.598;2024-03-22T07:19:20;13.07;;;11.73;;
6665;SDS011;3369;49.906;8.598;2024-03-22T07:21:46;14.45;;;12.25;;
6665;SDS011;3369;49.906;8.598;2024-03-22T07:24:12;12.48;;;11.18;;
6665;SDS011;3369;49.906;8.598;2024-03-22T07:26:37;11.55;;;10.45;;
6665;SDS011;3369;49.906;8.598;2024-03-22T07:29:03;13.48;;;12.18;;
6665;SDS011;3369;49.906;8.598;2024-03-22T07:31:29;12.30;;;11.10;;
6665;SDS011;3369;49.906;8.598;2024-03-22T07:33:55;13.05;;;11.75;;
6665;SDS011;3369;49.906;8.598;2024-03-22T07:36:20;14.53;;;12.43;;
6665;SDS011;3369;49.906;8.598;2024-03-22T07:38:46;12.80;;;11.60;;
6665;SDS011;3369;49.906;8.598;2024-03-22T07:41:14;14.63;;;12.82;;
6665;SDS011;3369;49.906;8.598;2024-03-22T07:43:39;13.50;;;12.10;;
6665;SDS011;3369;49.906;8.598;2024-03-22T07:46:05;12.43;;;11.13;;
6665;SDS011;3369;49.906;8.598;2024-03-22T07:48:31;11.83;;;10.73;;
6665;SDS011;3369;49.906;8.598;2024-03-22T07:51:00;12.60;;;11.25;;
6665;SDS011;3369;49.906;8.598;2024-03-22T07:53:26;14.43;;;12.77;;
6665;SDS011;3369;49.906;8.598;2024-03-22T07:55:52;13.65;;;12.25;;
6665;SDS011;3369;49.906;8.598;2024-03-22T07:58:18;13.07;;;11.77;;
6665;SDS011;3369;49.906;8.598;2024-03-22T08:00:44;14.73;;;13.23;;
6665;SDS011;3369;49.906;8.598;2024-03-22T08:03:16;14.27;;;12.70;;
6665;SDS011;3369;49.906;8.598;2024-03-22T08:05:42;12.90;;;11.45;;
6665;SDS011;3369;49.906;8.598;2024-03-22T08:08:08;12.50;;;11.30;;
6665;SDS011;3369;49.906;8.598;2024-03-22T08:10:33;13.13;;;11.82;;
6665;SDS011;3369;49.906;8.598;2024-03-22T08:12:59;12.40;;;11.20;;
6665;SDS011;3369;49.906;8.598;2024-03-22T08:15:28;12.50;;;11.30;;
6665;SDS011;3369;49.906;8.598;2024-03-22T08:17:55;11.63;;;10.53;;
6665;SDS011;3369;49.906;8.598;2024-03-22T08:20:22;11.98;;;10.77;;
6665;SDS011;3369;49.906;8.598;2024-03-22T08:22:48;9.68;;;8.75;;
6665;SDS011;3369;49.906;8.598;2024-03-22T08:25:14;10.45;;;9.45;;
6665;SDS011;3369;49.906;8.598;2024-03-22T08:27:42;10.02;;;9.02;;
6665;SDS011;3369;49.906;8.598;2024-03-22T08:30:09;10.60;;;9.50;;
6665;SDS011;3369;49.906;8.598;2024-03-22T08:32:37;11.10;;;9.90;;
6665;SDS011;3369;49.906;8.598;2024-03-22T08:35:03;11.23;;;10.10;;
6665;SDS011;3369;49.906;8.598;2024-03-22T08:37:32;10.75;;;9.65;;
6665;SDS011;3369;49.906;8.598;2024-03-22T08:39:58;10.60;;;9.27;;
6665;SDS011;3369;49.906;8.598;2024-03-22T08:42:24;9.40;;;8.48;;
6665;SDS011;3369;49.906;8.598;2024-03-22T08:44:50;9.50;;;8.53;;
6665;SDS011;3369;49.906;8.598;2024-03-22T08:47:15;10.17;;;9.17;;
6665;SDS011;3369;49.906;8.598;2024-03-22T08:49:41;9.45;;;8.30;;
6665;SDS011;3369;49.906;8.598;2024-03-22T08:52:08;11.25;;;9.10;;
6665;SDS011;3369;49.906;8.598;2024-03-22T08:54:34;10.18;;;8.90;;
6665;SDS011;3369;49.906;8.598;2024-03-22T08:57:00;9.95;;;8.93;;
6665;SDS011;3369;49.906;8.598;2024-03-22T08:59:25;11.70;;;9.27;;
6665;SDS011;3369;49.906;8.598;2024-03-22T09:01:51;10.90;;;9.07;;
6665;SDS011;3369;49.906;8.598;2024-03-22T09:04:17;9.45;;;8.30;;
6665;SDS011;3369;49.906;8.598;2024-03-22T09:06:42;11.80;;;8.90;;
6665;SDS011;3369;49.906;8.598;2024-03-22T09:09:08;9.40;;;8.50;;
6665;SDS011;3369;49.906;8.598;2024-03-22T09:11:34;9.82;;;8.88;;
6665;SDS011;3369;49.906;8.598;2024-03-22T09:14:00;9.63;;;8.60;;
6665;SDS011;3369;49.906;8.598;2024-03-22T09:16:25;9.18;;;8.27;;
6665;SDS011;3369;49.906;8.598;2024-03-22T09:18:51;9.45;;;8.45;;
6665;SDS011;3369;49.906;8.598;2024-03-22T09:21:17;11.40;;;9.00;;
6665;SDS011;3369;49.906;8.598;2024-03-22T09:23:42;9.47;;;8.47;;
6665;SDS011;3369;49.906;8.598;2024-03-22T09:26:08;7.88;;;7.18;;
6665;SDS011;3369;49.906;8.598;2024-03-22T09:28:33;8.10;;;7.30;;
6665;SDS011;3369;49.906;8.598;2024-03-22T09:31:08;7.97;;;7.27;;
6665;SDS011;3369;49.906;8.598;2024-03-22T09:33:34;9.68;;;8.57;;
6665;SDS011;3369;49.906;8.598;2024-03-22T09:35:59;10.25;;;9.25;;
6665;SDS011;3369;49.906;8.598;2024-03-22T09:38:25;10.17;;;9.07;;
6665;SDS011;3369;49.906;8.598;2024-03-22T09:40:50;10.37;;;9.27;;
6665;SDS011;3369;49.906;8.598;2024-03-22T09:43:19;11.38;;;9.88;;
6665;SDS011;3369;49.906;8.598;2024-03-22T09:45:46;10.63;;;9.53;;
6665;SDS011;3369;49.906;8.598;2024-03-22T09:48:18;11.10;;;9.82;;
6665;SDS011;3369;49.906;8.598;2024-03-22T09:50:47;8.57;;;7.78;;
6665;SDS011;3369;49.906;8.598;2024-03-22T09:53:13;11.68;;;9.48;;
6665;SDS011;3369;49.906;8.598;2024-03-22T09:55:43;9.93;;;8.93;;
6665;SDS011;3369;49.906;8.598;2024-03-22T09:58:10;9.07;;;8.18;;
6665;SDS011;3369;49.906;8.598;2024-03-22T10:00:36;8.80;;;7.90;;
6665;SDS011;3369;49.906;8.598;2024-03-22T10:03:01;9.50;;;8.55;;
6665;SDS011;3369;49.906;8.598;2024-03-22T10:05:29;10.27;;;9.23;;
6665;SDS011;3369;49.906;8.598;2024-03-22T10:07:54;10.45;;;9.40;;
6665;SDS011;3369;49.906;8.598;2024-03-22T10:10:20;9.77;;;8.30;;
6665;SDS011;3369;49.906;8.598;2024-03-22T10:12:46;8.60;;;7.65;;
6665;SDS011;3369;49.906;8.598;2024-03-22T10:15:12;8.38;;;7.05;;
6665;SDS011;3369;49.906;8.598;2024-03-22T10:17:38;9.63;;;7.22;;
6665;SDS011;3369;49.906;8.598;2024-03-22T10:20:05;9.30;;;7.38;;
6665;SDS011;3369;49.906;8.598;2024-03-22T10:22:57;9.18;;;6.82;;
6665;SDS011;3369;49.906;8.598;2024-03-22T10:25:25;10.05;;;6.45;;
6665;SDS011;3369;49.906;8.598;2024-03-22T10:27:53;7.93;;;6.93;;
6665;SDS011;3369;49.906;8.598;2024-03-22T10:30:20;7.95;;;6.57;;
6665;SDS011;3369;49.906;8.598;2024-03-22T10:32:46;8.30;;;6.82;;
6665;SDS011;3369;49.906;8.598;2024-03-22T10:35:13;8.93;;;7.35;;
6665;SDS011;3369;49.906;8.598;2024-03-22T10:37:40;7.45;;;6.75;;
6665;SDS011;3369;49.906;8.598;2024-03-22T10:40:07;8.38;;;6.70;;
6665;SDS011;3369;49.906;8.598;2024-03-22T10:42:36;8.75;;;7.20;;
6665;SDS011;3369;49.906;8.598;2024-03-22T10:45:06;8.98;;;7.50;;
6665;SDS011;3369;49.906;8.598;2024-03-22T10:47:33;8.53;;;7.60;;
6665;SDS011;3369;49.906;8.598;2024-03-22T10:50:04;8.60;;;7.70;;
6665;SDS011;3369;49.906;8.598;2024-03-22T10:55:43;8.18;;;7.38;;
6665;SDS011;3369;49.906;8.598;2024-03-22T10:58:16;9.30;;;7.20;;
6665;SDS011;3369;49.906;8.598;2024-03-22T11:00:43;10.50;;;7.97;;
6665;SDS011;3369;49.906;8.598;2024-03-22T11:03:09;7.63;;;6.70;;
6665;SDS011;3369;49.906;8.598;2024-03-22T11:05:44;8.88;;;7.28;;
6665;SDS011;3369;49.906;8.598;2024-03-22T11:08:22;10.83;;;8.23;;
6665;SDS011;3369;49.906;8.598;2024-03-22T11:10:53;10.80;;;8.25;;
6665;SDS011;3369;49.906;8.598;2024-03-22T11:13:19;8.90;;;8.00;;
6665;SDS011;3369;49.906;8.598;2024-03-22T11:15:48;10.15;;;7.68;;
6665;SDS011;3369;49.906;8.598;2024-03-22T11:18:15;8.90;;;7.63;;
6665;SDS011;3369;49.906;8.598;2024-03-22T11:20:41;8.13;;;7.22;;
6665;SDS011;3369;49.906;8.598;2024-03-22T11:23:07;9.13;;;7.50;;
6665;SDS011;3369;49.906;8.598;2024-03-22T11:25:34;7.82;;;7.03;;
6665;SDS011;3369;49.906;8.598;2024-03-22T11:28:00;8.20;;;7.07;;
6665;SDS011;3369;49.906;8.598;2024-03-22T11:30:27;8.73;;;7.43;;
6665;SDS011;3369;49.906;8.598;2024-03-22T11:32:54;8.43;;;7.30;;
6665;SDS011;3369;49.906;8.598;2024-03-22T11:35:21;9.32;;;7.88;;
6665;SDS011;3369;49.906;8.598;2024-03-22T11:37:48;8.65;;;7.75;;
6665;SDS011;3369;49.906;8.598;2024-03-22T11:40:14;8.77;;;7.20;;
6665;SDS011;3369;49.906;8.598;2024-03-22T11:42:41;8.88;;;7.20;;
6665;SDS011;3369;49.906;8.598;2024-03-22T11:45:09;8.00;;;7.20;;
6665;SDS011;3369;49.906;8.598;2024-03-22T11:47:36;9.30;;;7.13;;
6665;SDS011;3369;49.906;8.598;2024-03-22T11:50:02;8.38;;;6.57;;
6665;SDS011;3369;49.906;8.598;2024-03-22T11:52:28;8.43;;;7.20;;
6665;SDS011;3369;49.906;8.598;2024-03-22T11:54:54;7.78;;;6.70;;
6665;SDS011;3369;49.906;8.598;2024-03-22T11:57:21;7.30;;;6.60;;
6665;SDS011;3369;49.906;8.598;2024-03-22T11:59:47;8.60;;;6.95;;
6665;SDS011;3369;49.906;8.598;2024-03-22T12:02:12;6.97;;;6.25;;
6665;SDS011;3369;49.906;8.598;2024-03-22T12:04:45;8.47;;;6.87;;
6665;SDS011;3369;49.906;8.598;2024-03-22T12:07:12;9.10;;;6.85;;
6665;SDS011;3369;49.906;8.598;2024-03-22T12:09:42;7.15;;;6.53;;
6665;SDS011;3369;49.906;8.598;2024-03-22T12:12:09;8.13;;;7.32;;
6665;SDS011;3369;49.906;8.598;2024-03-22T12:14:36;9.52;;;6.75;;
6665;SDS011;3369;49.906;8.598;2024-03-22T12:17:02;7.30;;;6.60;;
6665;SDS011;3369;49.906;8.598;2024-03-22T12:19:28;7.65;;;6.85;;
6665;SDS011;3369;49.906;8.598;2024-03-22T12:21:54;8.27;;;7.43;;
6665;SDS011;3369;49.906;8.598;2024-03-22T12:24:19;7.68;;;6.95;;
6665;SDS011;3369;49.906;8.598;2024-03-22T12:26:45;8.18;;;7.13;;
6665;SDS011;3369;49.906;8.598;2024-03-22T12:29:12;8.60;;;7.70;;
6665;SDS011;3369;49.906;8.598;2024-03-22T12:31:38;8.52;;;7.60;;
6665;SDS011;3369;49.906;8.598;2024-03-22T12:34:03;7.72;;;6.97;;
6665;SDS011;3369;49.906;8.598;2024-03-22T12:36:29;8.68;;;6.90;;
6665;SDS011;3369;49.906;8.598;2024-03-22T12:38:55;7.83;;;7.03;;
6665;SDS011;3369;49.906;8.598;2024-03-22T12:41:20;7.07;;;6.37;;
6665;SDS011;3369;49.906;8.598;2024-03-22T12:43:46;9.15;;;8.25;;
6665;SDS011;3369;49.906;8.598;2024-03-22T12:46:11;7.43;;;6.60;;
6665;SDS011;3369;49.906;8.598;2024-03-22T12:48:37;9.00;;;8.10;;
6665;SDS011;3369;49.906;8.598;2024-03-22T12:51:03;7.65;;;6.85;;
6665;SDS011;3369;49.906;8.598;2024-03-22T12:53:28;8.00;;;6.80;;
6665;SDS011;3369;49.906;8.598;2024-03-22T12:55:54;8.70;;;7.53;;
6665;SDS011;3369;49.906;8.598;2024-03-22T12:58:19;8.13;;;7.28;;
6665;SDS011;3369;49.906;8.598;2024-03-22T13:00:45;8.43;;;7.57;;
6665;SDS011;3369;49.906;8.598;2024-03-22T13:03:11;8.73;;;7.57;;
6665;SDS011;3369;49.906;8.598;2024-03-22T13:05:40;8.68;;;7.63;;
6665;SDS011;3369;49.906;8.598;2024-03-22T13:08:05;8.63;;;7.73;;
6665;SDS011;3369;49.906;8.598;2024-03-22T13:10:31;8.07;;;7.27;;
6665;SDS011;3369;49.906;8.598;2024-03-22T13:12:56;9.55;;;7.85;;
6665;SDS011;3369;49.906;8.598;2024-03-22T13:15:22;8.43;;;7.50;;
6665;SDS011;3369;49.906;8.598;2024-03-22T13:17:48;7.83;;;7.03;;
6665;SDS011;3369;49.906;8.598;2024-03-22T13:20:14;7.90;;;7.20;;
6665;SDS011;3369;49.906;8.598;2024-03-22T13:22:40;9.80;;;8.70;;
6665;SDS011;3369;49.906;8.598;2024-03-22T13:25:06;10.10;;;9.00;;
6665;SDS011;3369;49.906;8.598;2024-03-22T13:27:33;9.20;;;8.30;;
6665;SDS011;3369;49.906;8.598;2024-03-22T13:29:59;8.32;;;7.45;;
6665;SDS011;3369;49.906;8.598;2024-03-22T13:32:25;10.40;;;9.35;;
6665;SDS011;3369;49.906;8.598;2024-03-22T13:34:51;9.87;;;8.70;;
6665;SDS011;3369;49.906;8.598;2024-03-22T13:37:16;10.63;;;9.03;;
6665;SDS011;3369;49.906;8.598;2024-03-22T13:39:42;9.90;;;8.73;;
6665;SDS011;3369;49.906;8.598;2024-03-22T13:42:07;9.00;;;8.10;;
6665;SDS011;3369;49.906;8.598;2024-03-22T13:44:34;8.73;;;7.85;;
6665;SDS011;3369;49.906;8.598;2024-03-22T13:47:00;12.82;;;10.63;;
6665;SDS011;3369;49.906;8.598;2024-03-22T13:49:25;12.00;;;10.90;;
6665;SDS011;3369;49.906;8.598;2024-03-22T13:51:51;12.80;;;10.95;;
6665;SDS011;3369;49.906;8.598;2024-03-22T13:54:17;10.15;;;9.15;;
6665;SDS011;3369;49.906;8.598;2024-03-22T13:56:42;11.03;;;9.43;;
6665;SDS011;3369;49.906;8.598;2024-03-22T13:59:08;10.05;;;8.93;;
6665;SDS011;3369;49.906;8.598;2024-03-22T14:01:37;9.40;;;8.43;;
6665;SDS011;3369;49.906;8.598;2024-03-22T14:04:03;6.85;;;6.25;;
6665;SDS011;3369;49.906;8.598;2024-03-22T14:06:30;12.30;;;11.00;;
6665;SDS011;3369;49.906;8.598;2024-03-22T14:08:56;12.40;;;11.10;;
6665;SDS011;3369;49.906;8.598;2024-03-22T14:11:26;10.77;;;9.68;;
6665;SDS011;3369;49.906;8.598;2024-03-22T14:13:55;11.50;;;10.20;;
6665;SDS011;3369;49.906;8.598;2024-03-22T14:16:24;11.05;;;9.82;;
6665;SDS011;3369;49.906;8.598;2024-03-22T14:18:50;10.35;;;9.30;;
6665;SDS011;3369;49.906;8.598;2024-03-22T14:21:17;11.35;;;10.25;;
6665;SDS011;3369;49.906;8.598;2024-03-22T14:23:46;13.35;;;10.57;;
6665;SDS011;3369;49.906;8.598;2024-03-22T14:26:13;10.52;;;9.43;;
6665;SDS011;3369;49.906;8.598;2024-03-22T14:28:39;10.53;;;9.53;;
6665;SDS011;3369;49.906;8.598;2024-03-22T14:31:08;9.50;;;8.60;;
6665;SDS011;3369;49.906;8.598;2024-03-22T14:33:35;11.18;;;9.50;;
6665;SDS011;3369;49.906;8.598;2024-03-22T14:36:01;9.57;;;8.52;;
6665;SDS011;3369;49.906;8.598;2024-03-22T14:38:27;12.02;;;10.73;;
6665;SDS011;3369;49.906;8.598;2024-03-22T14:40:53;10.75;;;9.65;;
6665;SDS011;3369;49.906;8.598;2024-03-22T14:43:20;10.30;;;9.30;;
6665;SDS011;3369;49.906;8.598;2024-03-22T14:45:46;9.23;;;8.43;;
6665;SDS011;3369;49.906;8.598;2024-03-22T14:48:11;8.03;;;7.33;;
6665;SDS011;3369;49.906;8.598;2024-03-22T14:50:37;9.38;;;8.48;;
6665;SDS011;3369;49.906;8.598;2024-03-22T14:53:06;10.17;;;9.17;;
6665;SDS011;3369;49.906;8.598;2024-03-22T14:55:31;9.13;;;7.83;;
6665;SDS011;3369;49.906;8.598;2024-03-22T14:57:57;8.43;;;7.33;;
6665;SDS011;3369;49.906;8.598;2024-03-22T15:00:23;7.68;;;6.97;;